createdAt,value
2018-11-26T00:00:38.398Z,980.47
2018-11-26T00:01:38.319Z,980.50
2018-11-26T00:02:38.238Z,980.48
2018-11-26T00:03:38.164Z,980.48
2018-11-26T00:04:38.075Z,980.49
2018-11-26T00:05:38.047Z,980.52
2018-11-26T00:06:37.916Z,980.52
2018-11-26T00:07:37.836Z,980.49
2018-11-26T00:08:37.753Z,980.52
2018-11-26T00:09:37.673Z,980.50
2018-11-26T00:10:37.593Z,980.51
2018-11-26T00:11:37.513Z,980.52
2018-11-26T00:12:37.431Z,980.47
2018-11-26T00:13:37.352Z,980.49
2018-11-26T00:14:37.272Z,980.47
2018-11-26T00:15:37.191Z,980.45
2018-11-26T00:16:37.109Z,980.46
2018-11-26T00:17:37.032Z,980.42
2018-11-26T00:18:36.950Z,980.42
2018-11-26T00:19:36.871Z,980.39
2018-11-26T00:20:36.789Z,980.42
2018-11-26T00:21:36.708Z,980.42
2018-11-26T00:22:36.628Z,980.46
2018-11-26T00:23:38.697Z,980.47
2018-11-26T00:24:36.469Z,980.48
2018-11-26T00:25:36.388Z,980.48
2018-11-26T00:26:36.312Z,980.47
2018-11-26T00:27:36.228Z,980.51
2018-11-26T00:28:36.148Z,980.48
2018-11-26T00:29:36.167Z,980.48
2018-11-26T00:30:35.988Z,980.47
2018-11-26T00:31:35.906Z,980.50
2018-11-26T00:32:35.826Z,980.52
2018-11-26T00:33:35.749Z,980.51
2018-11-26T00:34:35.666Z,980.52
2018-11-26T00:35:35.586Z,980.52
2018-11-26T00:36:35.505Z,980.51
2018-11-26T00:37:35.425Z,980.52
2018-11-26T00:38:35.348Z,980.51
2018-11-26T00:39:35.266Z,980.47
2018-11-26T00:40:35.184Z,980.45
2018-11-26T00:41:35.155Z,980.45
2018-11-26T00:42:35.025Z,980.42
2018-11-26T00:43:34.944Z,980.43
2018-11-26T00:44:34.866Z,980.44
2018-11-26T00:45:34.788Z,980.41
2018-11-26T00:46:34.703Z,980.46
2018-11-26T00:47:34.629Z,980.46
2018-11-26T00:48:34.544Z,980.49
2018-11-26T00:49:34.463Z,980.43
2018-11-26T00:50:34.384Z,980.42
2018-11-26T00:51:34.303Z,980.45
2018-11-26T00:52:34.223Z,980.44
2018-11-26T00:53:34.144Z,980.46
2018-11-26T00:54:34.063Z,980.42
2018-11-26T00:55:33.983Z,980.44
2018-11-26T00:56:33.901Z,980.39
2018-11-26T00:57:33.823Z,980.38
2018-11-26T00:58:33.744Z,980.39
2018-11-26T00:59:33.763Z,980.40
2018-11-26T01:00:33.582Z,980.44
2018-11-26T01:01:33.503Z,980.45
2018-11-26T01:02:33.425Z,980.50
2018-11-26T01:03:33.343Z,980.45
2018-11-26T01:04:33.261Z,980.48
2018-11-26T01:05:33.434Z,980.52
2018-11-26T01:06:33.102Z,980.49
2018-11-26T01:07:33.023Z,980.47
2018-11-26T01:08:32.944Z,980.53
2018-11-26T01:09:32.861Z,980.49
2018-11-26T01:10:32.781Z,980.50
2018-11-26T01:11:32.750Z,980.53
2018-11-26T01:12:32.625Z,980.57
2018-11-26T01:13:32.541Z,980.55
2018-11-26T01:14:32.461Z,980.48
2018-11-26T01:15:32.382Z,980.52
2018-11-26T01:16:32.301Z,980.46
2018-11-26T01:17:32.318Z,980.48
2018-11-26T01:18:32.142Z,980.47
2018-11-26T01:19:32.059Z,980.48
2018-11-26T01:20:31.979Z,980.50
2018-11-26T01:21:31.950Z,980.47
2018-11-26T01:22:31.821Z,980.46
2018-11-26T01:23:31.789Z,980.44
2018-11-26T01:24:31.656Z,980.44
2018-11-26T01:25:31.577Z,980.40
2018-11-26T01:26:31.497Z,980.41
2018-11-26T01:27:31.419Z,980.42
2018-11-26T01:28:31.338Z,980.38
2018-11-26T01:29:31.308Z,980.38
2018-11-26T01:30:31.181Z,980.37
2018-11-26T01:31:31.098Z,980.37
2018-11-26T01:32:31.019Z,980.42
2018-11-26T01:33:30.938Z,980.39
2018-11-26T01:34:30.855Z,980.41
2018-11-26T01:35:30.876Z,980.37
2018-11-26T01:36:30.696Z,980.38
2018-11-26T01:37:30.616Z,980.44
2018-11-26T01:38:30.535Z,980.40
2018-11-26T01:39:30.460Z,980.40
2018-11-26T01:40:30.377Z,980.40
2018-11-26T01:41:30.296Z,980.37
2018-11-26T01:42:30.216Z,980.36
2018-11-26T01:43:30.135Z,980.37
2018-11-26T01:44:30.056Z,980.41
2018-11-26T01:45:29.975Z,980.37
2018-11-26T01:46:29.895Z,980.40
2018-11-26T01:47:30.016Z,980.40
2018-11-26T01:48:29.735Z,980.41
2018-11-26T01:49:29.656Z,980.42
2018-11-26T01:50:29.578Z,980.39
2018-11-26T01:51:29.495Z,980.37
2018-11-26T01:52:29.416Z,980.37
2018-11-26T01:53:29.384Z,980.39
2018-11-26T01:54:29.255Z,980.38
2018-11-26T01:55:29.175Z,980.38
2018-11-26T01:56:29.095Z,980.37
2018-11-26T01:57:29.016Z,980.38
2018-11-26T01:58:28.935Z,980.34
2018-11-26T01:59:28.855Z,980.37
2018-11-26T02:00:28.776Z,980.35
2018-11-26T02:01:28.696Z,980.33
2018-11-26T02:02:28.616Z,980.32
2018-11-26T02:03:28.537Z,980.36
2018-11-26T02:04:28.455Z,980.37
2018-11-26T02:05:28.376Z,980.38
2018-11-26T02:06:28.296Z,980.41
2018-11-26T02:07:28.216Z,980.37
2018-11-26T02:08:28.135Z,980.40
2018-11-26T02:09:28.056Z,980.38
2018-11-26T02:10:27.976Z,980.41
2018-11-26T02:11:27.946Z,980.37
2018-11-26T02:12:27.815Z,980.36
2018-11-26T02:13:27.736Z,980.35
2018-11-26T02:14:27.656Z,980.35
2018-11-26T02:15:27.580Z,980.32
2018-11-26T02:16:27.496Z,980.35
2018-11-26T02:17:27.417Z,980.32
2018-11-26T02:18:27.337Z,980.32
2018-11-26T02:19:27.257Z,980.31
2018-11-26T02:20:27.176Z,980.34
2018-11-26T02:21:27.096Z,980.32
2018-11-26T02:22:27.019Z,980.33
2018-11-26T02:23:27.036Z,980.32
2018-11-26T02:24:26.856Z,980.32
2018-11-26T02:25:26.777Z,980.34
2018-11-26T02:26:26.699Z,980.32
2018-11-26T02:27:26.616Z,980.29
2018-11-26T02:28:26.536Z,980.37
2018-11-26T02:29:26.506Z,980.40
2018-11-26T02:30:26.385Z,980.44
2018-11-26T02:31:26.296Z,980.42
2018-11-26T02:32:26.216Z,980.42
2018-11-26T02:33:26.135Z,980.45
2018-11-26T02:34:26.054Z,980.44
2018-11-26T02:35:25.975Z,980.46
2018-11-26T02:36:25.895Z,980.45
2018-11-26T02:37:25.815Z,980.43
2018-11-26T02:38:25.736Z,980.45
2018-11-26T02:39:25.655Z,980.42
2018-11-26T02:40:25.574Z,980.39
2018-11-26T02:41:25.493Z,980.42
2018-11-26T02:42:25.417Z,980.44
2018-11-26T02:43:25.335Z,980.47
2018-11-26T02:44:25.252Z,980.46
2018-11-26T02:45:25.176Z,980.48
2018-11-26T02:46:25.093Z,980.46
2018-11-26T02:47:25.063Z,980.41
2018-11-26T02:48:24.937Z,980.42
2018-11-26T02:49:24.853Z,980.37
2018-11-26T02:50:24.771Z,980.41
2018-11-26T02:51:24.691Z,980.35
2018-11-26T02:52:24.610Z,980.35
2018-11-26T02:53:24.581Z,980.35
2018-11-26T02:54:24.450Z,980.34
2018-11-26T02:55:24.373Z,980.32
2018-11-26T02:56:24.290Z,980.31
2018-11-26T02:57:24.208Z,980.28
2018-11-26T02:58:24.129Z,980.25
2018-11-26T02:59:24.049Z,980.27
2018-11-26T03:00:23.969Z,980.25
2018-11-26T03:01:23.887Z,980.28
2018-11-26T03:02:23.810Z,980.26
2018-11-26T03:03:23.727Z,980.20
2018-11-26T03:04:23.649Z,980.26
2018-11-26T03:05:23.665Z,980.20
2018-11-26T03:06:23.487Z,980.20
2018-11-26T03:07:23.405Z,980.22
2018-11-26T03:08:23.324Z,980.23
2018-11-26T03:09:23.245Z,980.26
2018-11-26T03:10:23.164Z,980.28
2018-11-26T03:11:23.083Z,980.22
2018-11-26T03:12:23.003Z,980.21
2018-11-26T03:13:22.923Z,980.24
2018-11-26T03:14:22.842Z,980.21
2018-11-26T03:15:22.761Z,980.24
2018-11-26T03:16:22.681Z,980.25
2018-11-26T03:17:22.600Z,980.21
2018-11-26T03:18:22.520Z,980.22
2018-11-26T03:19:22.464Z,980.25
2018-11-26T03:20:22.358Z,980.23
2018-11-26T03:21:22.285Z,980.19
2018-11-26T03:22:22.199Z,980.22
2018-11-26T03:23:22.216Z,980.22
2018-11-26T03:24:22.035Z,980.24
2018-11-26T03:25:21.956Z,980.24
2018-11-26T03:26:21.875Z,980.30
2018-11-26T03:27:21.794Z,980.30
2018-11-26T03:28:21.713Z,980.31
2018-11-26T03:29:21.631Z,980.30
2018-11-26T03:30:21.577Z,980.29
2018-11-26T03:31:21.472Z,980.32
2018-11-26T03:32:21.389Z,980.32
2018-11-26T03:33:21.314Z,980.29
2018-11-26T03:34:21.228Z,980.38
2018-11-26T03:35:21.147Z,980.35
2018-11-26T03:36:21.066Z,980.39
2018-11-26T03:37:20.986Z,980.40
2018-11-26T03:38:20.904Z,980.38
2018-11-26T03:39:20.827Z,980.38
2018-11-26T03:40:20.742Z,980.38
2018-11-26T03:41:20.712Z,980.43
2018-11-26T03:42:20.581Z,980.41
2018-11-26T03:43:20.507Z,980.42
2018-11-26T03:44:20.419Z,980.41
2018-11-26T03:45:20.338Z,980.42
2018-11-26T03:46:20.256Z,980.39
2018-11-26T03:47:20.176Z,980.38
2018-11-26T03:48:20.093Z,980.37
2018-11-26T03:49:20.013Z,980.35
2018-11-26T03:50:19.931Z,980.40
2018-11-26T03:51:19.851Z,980.42
2018-11-26T03:52:19.770Z,980.46
2018-11-26T03:53:19.688Z,980.45
2018-11-26T03:54:19.607Z,980.45
2018-11-26T03:55:19.524Z,980.50
2018-11-26T03:56:19.443Z,980.50
2018-11-26T03:57:19.363Z,980.50
2018-11-26T03:58:19.281Z,980.50
2018-11-26T03:59:19.249Z,980.55
2018-11-26T04:00:19.117Z,980.56
2018-11-26T04:01:19.036Z,980.55
2018-11-26T04:02:18.954Z,980.51
2018-11-26T04:03:18.875Z,980.50
2018-11-26T04:04:18.792Z,980.49
2018-11-26T04:05:18.711Z,980.52
2018-11-26T04:06:18.629Z,980.50
2018-11-26T04:07:18.552Z,980.45
2018-11-26T04:08:18.487Z,980.50
2018-11-26T04:09:18.387Z,980.44
2018-11-26T04:10:18.303Z,980.46
2018-11-26T04:11:18.229Z,980.45
2018-11-26T04:12:18.141Z,980.45
2018-11-26T04:13:18.062Z,980.44
2018-11-26T04:14:17.980Z,980.46
2018-11-26T04:15:17.900Z,980.44
2018-11-26T04:16:17.815Z,980.45
2018-11-26T04:17:17.793Z,980.45
2018-11-26T04:18:17.655Z,980.51
2018-11-26T04:19:17.574Z,980.46
2018-11-26T04:20:17.491Z,980.46
2018-11-26T04:21:17.413Z,980.53
2018-11-26T04:22:17.330Z,980.49
2018-11-26T04:23:17.249Z,980.45
2018-11-26T04:24:17.165Z,980.50
2018-11-26T04:25:17.086Z,980.46
2018-11-26T04:26:17.004Z,980.44
2018-11-26T04:27:16.924Z,980.48
2018-11-26T04:28:16.842Z,980.46
2018-11-26T04:29:16.762Z,980.44
2018-11-26T04:30:16.679Z,980.42
2018-11-26T04:31:16.597Z,980.50
2018-11-26T04:32:16.516Z,980.44
2018-11-26T04:33:16.440Z,980.47
2018-11-26T04:34:16.353Z,980.50
2018-11-26T04:35:16.324Z,980.46
2018-11-26T04:36:16.202Z,980.45
2018-11-26T04:37:16.110Z,980.44
2018-11-26T04:38:16.027Z,980.44
2018-11-26T04:39:15.945Z,980.48
2018-11-26T04:40:15.865Z,980.47
2018-11-26T04:41:15.782Z,980.45
2018-11-26T04:42:15.700Z,980.43
2018-11-26T04:43:15.619Z,980.46
2018-11-26T04:44:15.537Z,980.43
2018-11-26T04:45:15.455Z,980.47
2018-11-26T04:46:15.375Z,980.42
2018-11-26T04:47:15.293Z,980.41
2018-11-26T04:48:15.210Z,980.45
2018-11-26T04:49:15.129Z,980.50
2018-11-26T04:50:15.048Z,980.43
2018-11-26T04:51:14.966Z,980.41
2018-11-26T04:52:14.883Z,980.38
2018-11-26T04:53:14.851Z,980.34
2018-11-26T04:54:14.720Z,980.39
2018-11-26T04:55:14.642Z,980.38
2018-11-26T04:56:14.556Z,980.37
2018-11-26T04:57:14.474Z,980.36
2018-11-26T04:58:14.396Z,980.40
2018-11-26T04:59:14.313Z,980.43
2018-11-26T05:00:14.228Z,980.37
2018-11-26T05:01:14.181Z,980.39
2018-11-26T05:02:14.066Z,980.42
2018-11-26T05:03:13.984Z,980.42
2018-11-26T05:04:13.901Z,980.41
2018-11-26T05:05:13.821Z,980.40
2018-11-26T05:06:13.737Z,980.39
2018-11-26T05:07:13.656Z,980.32
2018-11-26T05:08:13.574Z,980.34
2018-11-26T05:09:13.493Z,980.33
2018-11-26T05:10:13.411Z,980.35
2018-11-26T05:11:13.378Z,980.34
2018-11-26T05:12:13.246Z,980.33
2018-11-26T05:13:13.165Z,980.38
2018-11-26T05:14:13.082Z,980.38
2018-11-26T05:15:13.010Z,980.33
2018-11-26T05:16:12.921Z,980.33
2018-11-26T05:17:13.087Z,980.33
2018-11-26T05:18:12.755Z,980.39
2018-11-26T05:19:12.681Z,980.37
2018-11-26T05:20:12.592Z,980.35
2018-11-26T05:21:12.514Z,980.35
2018-11-26T05:22:12.427Z,980.28
2018-11-26T05:23:12.347Z,980.31
2018-11-26T05:24:12.265Z,980.30
2018-11-26T05:25:12.194Z,980.32
2018-11-26T05:26:12.105Z,980.32
2018-11-26T05:27:12.021Z,980.31
2018-11-26T05:28:11.938Z,980.26
2018-11-26T05:29:11.906Z,980.27
2018-11-26T05:30:11.776Z,980.28
2018-11-26T05:31:11.694Z,980.29
2018-11-26T05:32:11.611Z,980.29
2018-11-26T05:33:11.528Z,980.24
2018-11-26T05:34:11.449Z,980.23
2018-11-26T05:35:11.421Z,980.26
2018-11-26T05:36:11.284Z,980.21
2018-11-26T05:37:11.203Z,980.19
2018-11-26T05:38:11.125Z,980.22
2018-11-26T05:39:11.041Z,980.22
2018-11-26T05:40:10.959Z,980.21
2018-11-26T05:41:10.876Z,980.23
2018-11-26T05:42:10.796Z,980.20
2018-11-26T05:43:10.715Z,980.21
2018-11-26T05:44:10.634Z,980.21
2018-11-26T05:45:10.552Z,980.22
2018-11-26T05:46:10.473Z,980.21
2018-11-26T05:47:10.487Z,980.21
2018-11-26T05:48:10.308Z,980.22
2018-11-26T05:49:10.225Z,980.26
2018-11-26T05:50:10.142Z,980.22
2018-11-26T05:51:10.061Z,980.24
2018-11-26T05:52:09.979Z,980.27
2018-11-26T05:53:09.997Z,980.21
2018-11-26T05:54:09.815Z,980.23
2018-11-26T05:55:09.734Z,980.23
2018-11-26T05:56:09.654Z,980.28
2018-11-26T05:57:09.570Z,980.25
2018-11-26T05:58:09.488Z,980.22
2018-11-26T05:59:09.408Z,980.25
2018-11-26T06:00:09.325Z,980.25
2018-11-26T06:01:09.243Z,980.25
2018-11-26T06:02:09.161Z,980.24
2018-11-26T06:03:09.080Z,980.20
2018-11-26T06:04:08.997Z,980.26
2018-11-26T06:05:08.967Z,980.25
2018-11-26T06:06:08.835Z,980.25
2018-11-26T06:07:08.758Z,980.22
2018-11-26T06:08:08.670Z,980.26
2018-11-26T06:09:08.590Z,980.24
2018-11-26T06:10:08.508Z,980.24
2018-11-26T06:11:08.530Z,980.23
2018-11-26T06:12:08.347Z,980.22
2018-11-26T06:13:08.265Z,980.24
2018-11-26T06:14:08.184Z,980.25
2018-11-26T06:15:08.101Z,980.26
2018-11-26T06:16:08.021Z,980.28
2018-11-26T06:17:07.939Z,980.28
2018-11-26T06:18:07.858Z,980.32
2018-11-26T06:19:07.776Z,980.29
2018-11-26T06:20:07.694Z,980.32
2018-11-26T06:21:07.613Z,980.33
2018-11-26T06:22:07.533Z,980.30
2018-11-26T06:23:07.502Z,980.31
2018-11-26T06:24:07.386Z,980.31
2018-11-26T06:25:07.291Z,980.31
2018-11-26T06:26:07.207Z,980.29
2018-11-26T06:27:07.125Z,980.29
2018-11-26T06:28:07.043Z,980.30
2018-11-26T06:29:06.963Z,980.29
2018-11-26T06:30:06.883Z,980.27
2018-11-26T06:31:06.800Z,980.28
2018-11-26T06:32:06.718Z,980.27
2018-11-26T06:33:06.683Z,980.31
2018-11-26T06:34:06.556Z,980.25
2018-11-26T06:35:06.474Z,980.28
2018-11-26T06:36:06.391Z,980.27
2018-11-26T06:37:06.309Z,980.27
2018-11-26T06:38:06.229Z,980.29
2018-11-26T06:39:06.147Z,980.30
2018-11-26T06:40:06.065Z,980.34
2018-11-26T06:41:06.085Z,980.30
2018-11-26T06:42:05.901Z,980.33
2018-11-26T06:43:05.821Z,980.38
2018-11-26T06:44:05.739Z,980.38
2018-11-26T06:45:05.657Z,980.35
2018-11-26T06:46:05.575Z,980.41
2018-11-26T06:47:05.494Z,980.40
2018-11-26T06:48:05.414Z,980.43
2018-11-26T06:49:05.334Z,980.42
2018-11-26T06:50:05.250Z,980.43
2018-11-26T06:51:05.169Z,980.43
2018-11-26T06:52:05.092Z,980.41
2018-11-26T06:53:05.007Z,980.39
2018-11-26T06:54:04.924Z,980.39
2018-11-26T06:55:04.844Z,980.41
2018-11-26T06:56:04.761Z,980.38
2018-11-26T06:57:04.684Z,980.42
2018-11-26T06:58:04.599Z,980.44
2018-11-26T06:59:04.571Z,980.43
2018-11-26T07:00:04.436Z,980.42
2018-11-26T07:01:04.360Z,980.42
2018-11-26T07:02:04.273Z,980.47
2018-11-26T07:03:04.193Z,980.49
2018-11-26T07:04:04.115Z,980.51
2018-11-26T07:05:04.030Z,980.49
2018-11-26T07:06:03.949Z,980.46
2018-11-26T07:07:03.868Z,980.48
2018-11-26T07:08:03.787Z,980.46
2018-11-26T07:09:03.704Z,980.51
2018-11-26T07:10:03.623Z,980.51
2018-11-26T07:11:03.542Z,980.49
2018-11-26T07:12:03.461Z,980.44
2018-11-26T07:13:03.380Z,980.46
2018-11-26T07:14:03.299Z,980.46
2018-11-26T07:15:03.217Z,980.45
2018-11-26T07:16:03.134Z,980.53
2018-11-26T07:17:03.104Z,980.52
2018-11-26T07:18:02.979Z,980.56
2018-11-26T07:19:02.892Z,980.53
2018-11-26T07:20:02.810Z,980.54
2018-11-26T07:21:02.729Z,980.55
2018-11-26T07:22:02.649Z,980.57
2018-11-26T07:23:02.568Z,980.59
2018-11-26T07:24:02.486Z,980.60
2018-11-26T07:25:02.405Z,980.58
2018-11-26T07:26:02.324Z,980.60
2018-11-26T07:27:02.250Z,980.57
2018-11-26T07:28:02.163Z,980.58
2018-11-26T07:29:02.082Z,980.62
2018-11-26T07:30:02.003Z,980.64
2018-11-26T07:31:01.921Z,980.59
2018-11-26T07:32:01.838Z,980.64
2018-11-26T07:33:01.757Z,980.64
2018-11-26T07:34:01.675Z,980.69
2018-11-26T07:35:01.750Z,980.70
2018-11-26T07:36:01.515Z,980.76
2018-11-26T07:37:01.432Z,980.74
2018-11-26T07:38:01.351Z,980.76
2018-11-26T07:39:01.271Z,980.73
2018-11-26T07:40:01.192Z,980.75
2018-11-26T07:41:01.111Z,980.76
2018-11-26T07:42:01.026Z,980.74
2018-11-26T07:43:00.947Z,980.74
2018-11-26T07:44:00.864Z,980.74
2018-11-26T07:45:00.784Z,980.73
2018-11-26T07:46:00.703Z,980.73
2018-11-26T07:47:00.622Z,980.71
2018-11-26T07:48:00.542Z,980.69
2018-11-26T07:49:00.461Z,980.71
2018-11-26T07:50:00.380Z,980.72
2018-11-26T07:51:00.299Z,980.75
2018-11-26T07:52:00.217Z,980.73
2018-11-26T07:53:00.187Z,980.78
2018-11-26T07:54:00.059Z,980.78
2018-11-26T07:54:59.975Z,980.80
2018-11-26T07:55:59.896Z,980.80
2018-11-26T07:56:59.813Z,980.81
2018-11-26T07:57:59.731Z,980.82
2018-11-26T07:58:59.651Z,980.85
2018-11-26T07:59:59.568Z,980.84
2018-11-26T08:00:59.487Z,980.84
2018-11-26T08:01:59.407Z,980.86
2018-11-26T08:02:59.325Z,980.89
2018-11-26T08:03:59.244Z,980.94
2018-11-26T08:04:59.164Z,980.95
2018-11-26T08:05:59.082Z,980.93
2018-11-26T08:06:59.002Z,980.95
2018-11-26T08:07:58.920Z,980.95
2018-11-26T08:08:58.837Z,980.95
2018-11-26T08:09:58.758Z,980.93
2018-11-26T08:10:59.980Z,980.99
2018-11-26T08:11:58.595Z,980.99
2018-11-26T08:12:58.515Z,980.96
2018-11-26T08:13:58.435Z,981.00
2018-11-26T08:14:58.356Z,981.04
2018-11-26T08:15:58.274Z,981.00
2018-11-26T08:16:58.193Z,981.02
2018-11-26T08:17:58.114Z,981.03
2018-11-26T08:18:58.033Z,981.03
2018-11-26T08:19:57.951Z,981.03
2018-11-26T08:20:57.871Z,981.04
2018-11-26T08:21:57.790Z,981.03
2018-11-26T08:22:57.709Z,981.03
2018-11-26T08:23:57.629Z,981.04
2018-11-26T08:24:57.549Z,981.07
2018-11-26T08:25:57.470Z,981.09
2018-11-26T08:26:57.390Z,981.08
2018-11-26T08:27:57.309Z,981.06
2018-11-26T08:28:57.379Z,981.07
2018-11-26T08:29:57.150Z,981.09
2018-11-26T08:30:57.070Z,981.03
2018-11-26T08:31:56.988Z,981.05
2018-11-26T08:32:56.912Z,981.06
2018-11-26T08:33:56.828Z,981.10
2018-11-26T08:34:56.800Z,981.06
2018-11-26T08:35:56.669Z,981.09
2018-11-26T08:36:56.589Z,981.09
2018-11-26T08:37:56.513Z,981.10
2018-11-26T08:38:56.434Z,981.11
2018-11-26T08:39:56.349Z,981.10
2018-11-26T08:40:56.320Z,981.14
2018-11-26T08:41:56.190Z,981.15
2018-11-26T08:42:56.113Z,981.15
2018-11-26T08:43:56.030Z,981.16
2018-11-26T08:44:55.952Z,981.14
2018-11-26T08:45:55.872Z,981.16
2018-11-26T08:46:55.895Z,981.19
2018-11-26T08:47:55.712Z,981.20
2018-11-26T08:48:55.633Z,981.23
2018-11-26T08:49:55.558Z,981.21
2018-11-26T08:50:55.475Z,981.21
2018-11-26T08:51:55.394Z,981.21
2018-11-26T08:52:55.315Z,981.23
2018-11-26T08:53:55.237Z,981.25
2018-11-26T08:54:55.157Z,981.27
2018-11-26T08:55:55.076Z,981.24
2018-11-26T08:56:54.996Z,981.26
2018-11-26T08:57:54.918Z,981.29
2018-11-26T08:58:54.889Z,981.31
2018-11-26T08:59:54.765Z,981.33
2018-11-26T09:00:54.681Z,981.32
2018-11-26T09:01:54.600Z,981.34
2018-11-26T09:02:54.524Z,981.34
2018-11-26T09:03:54.441Z,981.33
2018-11-26T09:04:54.412Z,981.37
2018-11-26T09:05:54.283Z,981.37
2018-11-26T09:06:54.205Z,981.38
2018-11-26T09:07:54.123Z,981.41
2018-11-26T09:08:54.045Z,981.41
2018-11-26T09:09:53.966Z,981.39
2018-11-26T09:10:53.888Z,981.38
2018-11-26T09:11:53.807Z,981.38
2018-11-26T09:12:53.729Z,981.38
2018-11-26T09:13:53.653Z,981.37
2018-11-26T09:14:53.570Z,981.39
2018-11-26T09:15:53.492Z,981.40
2018-11-26T09:16:53.412Z,981.39
2018-11-26T09:17:53.333Z,981.41
2018-11-26T09:18:53.254Z,981.39
2018-11-26T09:19:53.175Z,981.43
2018-11-26T09:20:53.096Z,981.45
2018-11-26T09:21:53.021Z,981.43
2018-11-26T09:22:53.041Z,981.44
2018-11-26T09:23:52.858Z,981.49
2018-11-26T09:24:52.779Z,981.43
2018-11-26T09:25:52.703Z,981.43
2018-11-26T09:26:52.622Z,981.44
2018-11-26T09:27:52.544Z,981.47
2018-11-26T09:28:52.467Z,981.46
2018-11-26T09:29:52.385Z,981.44
2018-11-26T09:30:52.313Z,981.47
2018-11-26T09:31:52.229Z,981.47
2018-11-26T09:32:52.148Z,981.48
2018-11-26T09:33:52.081Z,981.52
2018-11-26T09:34:52.091Z,981.51
2018-11-26T09:35:51.910Z,981.54
2018-11-26T09:36:51.832Z,981.55
2018-11-26T09:37:51.755Z,981.53
2018-11-26T09:38:51.676Z,981.52
2018-11-26T09:39:51.596Z,981.50
2018-11-26T09:40:52.168Z,981.44
2018-11-26T09:41:51.439Z,981.45
2018-11-26T09:42:51.359Z,981.46
2018-11-26T09:43:51.287Z,981.47
2018-11-26T09:44:51.201Z,981.43
2018-11-26T09:45:51.123Z,981.47
2018-11-26T09:46:51.044Z,981.43
2018-11-26T09:47:50.965Z,981.46
2018-11-26T09:48:50.886Z,981.53
2018-11-26T09:49:50.811Z,981.49
2018-11-26T09:50:50.731Z,981.54
2018-11-26T09:51:50.649Z,981.47
2018-11-26T09:52:50.570Z,981.45
2018-11-26T09:53:50.492Z,981.44
2018-11-26T09:54:50.416Z,981.49
2018-11-26T09:55:50.338Z,981.43
2018-11-26T09:56:50.256Z,981.42
2018-11-26T09:57:50.178Z,981.42
2018-11-26T09:58:50.155Z,981.45
2018-11-26T09:59:50.018Z,981.42
2018-11-26T10:00:49.939Z,981.45
2018-11-26T10:01:49.863Z,981.46
2018-11-26T10:02:49.783Z,981.46
2018-11-26T10:03:49.702Z,981.45
2018-11-26T10:04:49.622Z,981.43
2018-11-26T10:05:49.543Z,981.44
2018-11-26T10:06:49.465Z,981.44
2018-11-26T10:07:49.384Z,981.43
2018-11-26T10:08:49.306Z,981.38
2018-11-26T10:09:49.228Z,981.40
2018-11-26T10:10:49.149Z,981.45
2018-11-26T10:11:49.068Z,981.40
2018-11-26T10:12:48.990Z,981.40
2018-11-26T10:13:48.911Z,981.46
2018-11-26T10:14:48.831Z,981.40
2018-11-26T10:15:48.751Z,981.43
2018-11-26T10:16:48.722Z,981.44
2018-11-26T10:17:48.593Z,981.51
2018-11-26T10:18:48.513Z,981.45
2018-11-26T10:19:48.434Z,981.43
2018-11-26T10:20:48.356Z,981.43
2018-11-26T10:21:48.279Z,981.40
2018-11-26T10:22:48.199Z,981.43
2018-11-26T10:23:48.117Z,981.41
2018-11-26T10:24:48.038Z,981.37
2018-11-26T10:25:47.959Z,981.37
2018-11-26T10:26:47.879Z,981.34
2018-11-26T10:27:47.800Z,981.33
2018-11-26T10:28:47.721Z,981.40
2018-11-26T10:29:47.643Z,981.42
2018-11-26T10:30:47.563Z,981.41
2018-11-26T10:31:47.482Z,981.34
2018-11-26T10:32:47.403Z,981.40
2018-11-26T10:33:47.325Z,981.40
2018-11-26T10:34:47.498Z,981.38
2018-11-26T10:35:47.168Z,981.44
2018-11-26T10:36:47.086Z,981.38
2018-11-26T10:37:47.007Z,981.37
2018-11-26T10:38:46.928Z,981.36
2018-11-26T10:39:46.850Z,981.38
2018-11-26T10:40:46.770Z,981.36
2018-11-26T10:41:46.690Z,981.37
2018-11-26T10:42:46.610Z,981.42
2018-11-26T10:43:46.531Z,981.39
2018-11-26T10:44:46.452Z,981.42
2018-11-26T10:45:46.374Z,981.44
2018-11-26T10:46:46.293Z,981.47
2018-11-26T10:47:46.218Z,981.40
2018-11-26T10:48:46.134Z,981.43
2018-11-26T10:49:46.056Z,981.43
2018-11-26T10:50:45.977Z,981.46
2018-11-26T10:51:45.899Z,981.47
2018-11-26T10:52:46.322Z,981.44
2018-11-26T10:53:45.737Z,981.39
2018-11-26T10:54:45.657Z,981.43
2018-11-26T10:55:45.577Z,981.41
2018-11-26T10:56:45.499Z,981.44
2018-11-26T10:57:45.424Z,981.45
2018-11-26T10:58:45.590Z,981.38
2018-11-26T10:59:45.260Z,981.36
2018-11-26T11:00:45.181Z,981.32
2018-11-26T11:01:45.101Z,981.38
2018-11-26T11:02:45.021Z,981.39
2018-11-26T11:03:44.944Z,981.33
2018-11-26T11:04:47.668Z,981.33
2018-11-26T11:05:44.783Z,981.37
2018-11-26T11:06:44.703Z,981.34
2018-11-26T11:07:44.627Z,981.35
2018-11-26T11:08:44.542Z,981.31
2018-11-26T11:09:44.465Z,981.33
2018-11-26T11:10:44.433Z,981.32
2018-11-26T11:11:44.304Z,981.29
2018-11-26T11:12:44.224Z,981.27
2018-11-26T11:13:44.146Z,981.31
2018-11-26T11:14:44.065Z,981.25
2018-11-26T11:15:43.985Z,981.29
2018-11-26T11:16:43.906Z,981.31
2018-11-26T11:17:43.826Z,981.32
2018-11-26T11:18:43.749Z,981.25
2018-11-26T11:19:43.667Z,981.35
2018-11-26T11:20:43.588Z,981.28
2018-11-26T11:21:43.509Z,981.27
2018-11-26T11:22:43.429Z,981.29
2018-11-26T11:23:43.348Z,981.25
2018-11-26T11:24:43.270Z,981.28
2018-11-26T11:25:43.190Z,981.27
2018-11-26T11:26:43.111Z,981.25
2018-11-26T11:27:44.447Z,981.28
2018-11-26T11:28:43.009Z,981.33
2018-11-26T11:29:42.871Z,981.33
2018-11-26T11:30:42.792Z,981.29
2018-11-26T11:31:42.712Z,981.30
2018-11-26T11:32:42.633Z,981.32
2018-11-26T11:33:42.555Z,981.32
2018-11-26T11:34:42.525Z,981.30
2018-11-26T11:35:42.395Z,981.32
2018-11-26T11:36:42.316Z,981.30
2018-11-26T11:37:42.237Z,981.31
2018-11-26T11:38:42.159Z,981.31
2018-11-26T11:39:42.078Z,981.35
2018-11-26T11:40:41.999Z,981.38
2018-11-26T11:41:41.923Z,981.38
2018-11-26T11:42:41.841Z,981.37
2018-11-26T11:43:41.761Z,981.36
2018-11-26T11:44:41.683Z,981.35
2018-11-26T11:45:41.604Z,981.37
2018-11-26T11:46:41.576Z,981.36
2018-11-26T11:47:41.461Z,981.35
2018-11-26T11:48:41.364Z,981.35
2018-11-26T11:49:41.287Z,981.37
2018-11-26T11:50:41.207Z,981.39
2018-11-26T11:51:41.127Z,981.35
2018-11-26T11:52:41.047Z,981.36
2018-11-26T11:53:40.968Z,981.37
2018-11-26T11:54:40.892Z,981.37
2018-11-26T11:55:40.814Z,981.41
2018-11-26T11:56:40.729Z,981.39
2018-11-26T11:57:40.651Z,981.39
2018-11-26T11:58:40.821Z,981.42
2018-11-26T11:59:40.494Z,981.43
2018-11-26T12:00:40.421Z,981.40
2018-11-26T12:01:40.334Z,981.40
2018-11-26T12:02:40.256Z,981.42
2018-11-26T12:03:40.174Z,981.39
2018-11-26T12:04:40.145Z,981.39
2018-11-26T12:05:40.016Z,981.41
2018-11-26T12:06:39.937Z,981.40
2018-11-26T12:07:39.857Z,981.37
2018-11-26T12:08:39.780Z,981.40
2018-11-26T12:09:39.697Z,981.38
2018-11-26T12:10:39.622Z,981.39
2018-11-26T12:11:39.541Z,981.38
2018-11-26T12:12:39.462Z,981.40
2018-11-26T12:13:39.381Z,981.37
2018-11-26T12:14:39.301Z,981.39
2018-11-26T12:15:39.221Z,981.38
2018-11-26T12:16:39.142Z,981.41
2018-11-26T12:17:39.063Z,981.40
2018-11-26T12:18:38.984Z,981.38
2018-11-26T12:19:38.904Z,981.36
2018-11-26T12:20:38.825Z,981.39
2018-11-26T12:21:38.745Z,981.34
2018-11-26T12:22:38.817Z,981.35
2018-11-26T12:23:38.589Z,981.37
2018-11-26T12:24:38.509Z,981.33
2018-11-26T12:25:38.430Z,981.33
2018-11-26T12:26:38.352Z,981.37
2018-11-26T12:27:38.271Z,981.32